Time;durP1;ratioP1;P1;durP2;ratioP2;P2;SDS_P1;SDS_P2;PMS_P1;PMS_P2;Temp;Humidity;BMP_temperature;BMP_pressure;BME280_temperature;BME280_humidity;BME280_pressure;Samples;Min_cycle;Max_cycle;Signal;HPM_P1;HPM_P2
2021/11/06 00:01:24;;;;;;;8.05;5.43;;;10.10;99.90;;;;;;4984414;28;20088;-58
2021/11/06 00:03:51;;;;;;;8.82;6.00;;;10.10;99.90;;;;;;4984209;28;20191;-60
2021/11/06 00:06:18;;;;;;;8.32;5.68;;;10.10;99.90;;;;;;4983450;28;20085;-60
2021/11/06 00:08:45;;;;;;;5.78;5.18;;;10.10;99.90;;;;;;4981965;28;20122;-60
2021/11/06 00:11:12;;;;;;;8.20;5.50;;;10.10;99.90;;;;;;4984196;28;20132;-60
2021/11/06 00:13:39;;;;;;;6.25;4.90;;;10.10;99.90;;;;;;4983676;28;20086;-60
2021/11/06 00:16:06;;;;;;;6.70;4.95;;;10.10;99.90;;;;;;4981466;28;20166;-60
2021/11/06 00:18:33;;;;;;;5.47;4.03;;;10.10;99.90;;;;;;4983495;28;20125;-60
2021/11/06 00:21:00;;;;;;;6.82;4.40;;;10.10;99.90;;;;;;4983739;28;20141;-59
2021/11/06 00:23:27;;;;;;;6.85;4.50;;;10.20;99.90;;;;;;4984843;28;20602;-60
2021/11/06 00:25:54;;;;;;;6.50;4.50;;;10.20;99.90;;;;;;4983736;28;20060;-60
2021/11/06 00:28:21;;;;;;;8.30;4.22;;;10.20;99.90;;;;;;4982206;28;21022;-60
2021/11/06 00:30:48;;;;;;;5.20;3.83;;;10.10;99.90;;;;;;4981259;28;20137;-60
2021/11/06 00:33:15;;;;;;;5.95;4.15;;;10.10;99.90;;;;;;4982144;28;20084;-60
2021/11/06 00:35:41;;;;;;;5.10;3.65;;;10.00;99.90;;;;;;4980263;28;20042;-60
2021/11/06 00:38:09;;;;;;;5.13;3.72;;;10.00;99.90;;;;;;4977788;28;20133;-58
2021/11/06 00:40:35;;;;;;;5.30;3.95;;;9.90;99.90;;;;;;4981825;28;20144;-60
2021/11/06 00:43:02;;;;;;;4.53;3.17;;;9.90;99.90;;;;;;4982577;28;20097;-60
2021/11/06 00:45:29;;;;;;;6.05;3.85;;;9.90;99.90;;;;;;4980900;28;20130;-60
2021/11/06 00:47:56;;;;;;;4.90;3.30;;;9.80;99.90;;;;;;4982699;28;20120;-58
2021/11/06 00:50:23;;;;;;;4.18;3.53;;;9.70;99.90;;;;;;4979785;28;20137;-60
2021/11/06 00:52:51;;;;;;;4.00;3.20;;;9.60;99.90;;;;;;4981798;28;20101;-59
2021/11/06 00:55:18;;;;;;;4.90;3.35;;;9.50;99.90;;;;;;4980966;28;20160;-59
2021/11/06 00:57:45;;;;;;;4.53;3.20;;;9.50;99.90;;;;;;4982309;28;20663;-60
2021/11/06 01:00:12;;;;;;;4.68;3.10;;;9.40;99.90;;;;;;4979646;28;21341;-59
2021/11/06 01:02:39;;;;;;;4.40;3.33;;;9.30;99.90;;;;;;4981416;28;20058;-59
2021/11/06 01:05:06;;;;;;;4.25;3.00;;;9.30;99.90;;;;;;4981441;28;20057;-59
2021/11/06 01:07:33;;;;;;;5.90;4.00;;;9.20;99.90;;;;;;4978471;28;20049;-59
2021/11/06 01:10:00;;;;;;;4.25;3.20;;;9.20;99.90;;;;;;4980973;28;21081;-58
2021/11/06 01:12:27;;;;;;;4.93;3.35;;;9.20;99.90;;;;;;4982173;28;20078;-60
2021/11/06 01:14:54;;;;;;;4.53;3.45;;;9.20;99.90;;;;;;4980220;28;20156;-60
2021/11/06 01:17:20;;;;;;;4.38;3.10;;;9.30;99.90;;;;;;4981571;28;20137;-59
2021/11/06 01:19:47;;;;;;;6.10;4.40;;;9.30;99.90;;;;;;4981389;28;20129;-59
2021/11/06 01:22:17;;;;;;;5.68;3.83;;;9.30;99.90;;;;;;4980089;28;20085;-59
2021/11/06 01:24:43;;;;;;;6.07;4.57;;;9.40;99.90;;;;;;4981923;28;20133;-60
2021/11/06 01:27:11;;;;;;;7.35;4.13;;;9.40;99.90;;;;;;4982372;28;20077;-59
2021/11/06 01:29:38;;;;;;;6.47;3.85;;;9.40;99.90;;;;;;4981144;28;20073;-60
2021/11/06 01:32:06;;;;;;;4.28;3.25;;;9.50;99.90;;;;;;4978309;28;20112;-60
2021/11/06 01:34:34;;;;;;;5.93;3.40;;;9.50;99.90;;;;;;4979961;28;20133;-59
2021/11/06 01:37:01;;;;;;;4.63;3.25;;;9.60;99.90;;;;;;4981429;28;20082;-59
2021/11/06 01:39:27;;;;;;;6.30;3.72;;;9.60;99.90;;;;;;4981498;28;20336;-60
2021/11/06 01:41:55;;;;;;;4.88;3.97;;;9.70;99.90;;;;;;4964198;28;20133;-60
2021/11/06 01:44:24;;;;;;;4.53;3.72;;;9.70;99.90;;;;;;4981309;28;20142;-59
2021/11/06 01:46:51;;;;;;;4.82;2.97;;;9.70;99.90;;;;;;4983303;28;20061;-60
2021/11/06 01:49:21;;;;;;;4.18;3.03;;;9.80;99.90;;;;;;4982050;28;20061;-59
2021/11/06 01:51:48;;;;;;;4.72;3.47;;;9.80;99.90;;;;;;4982554;28;20488;-58
2021/11/06 01:54:17;;;;;;;7.05;4.15;;;9.80;99.90;;;;;;4982391;28;20165;-60
2021/11/06 01:56:44;;;;;;;5.55;3.83;;;9.90;99.90;;;;;;4982802;28;20129;-60
2021/11/06 01:59:11;;;;;;;6.45;4.03;;;9.90;99.90;;;;;;4980586;28;20573;-59
2021/11/06 02:01:40;;;;;;;5.07;3.78;;;9.90;99.90;;;;;;4980974;28;20560;-60
2021/11/06 02:04:06;;;;;;;5.00;3.40;;;9.90;99.90;;;;;;4982493;28;20485;-60
2021/11/06 02:06:38;;;;;;;5.90;3.47;;;10.00;99.90;;;;;;4982620;28;20442;-60
2021/11/06 02:09:05;;;;;;;4.82;3.20;;;10.00;99.90;;;;;;4983095;28;20086;-59
2021/11/06 02:11:32;;;;;;;4.38;2.97;;;10.00;99.90;;;;;;4983039;28;20105;-60
2021/11/06 02:13:59;;;;;;;4.43;3.08;;;10.10;99.90;;;;;;4981088;28;20470;-59
2021/11/06 02:16:26;;;;;;;5.15;3.38;;;10.10;99.90;;;;;;4981913;28;20148;-59
2021/11/06 02:18:53;;;;;;;3.85;3.00;;;10.10;99.90;;;;;;4982521;28;20438;-60
2021/11/06 02:21:20;;;;;;;3.72;3.03;;;10.10;99.90;;;;;;4982462;28;20384;-60
2021/11/06 02:23:48;;;;;;;4.70;3.22;;;10.10;99.90;;;;;;4981599;28;20088;-60
2021/11/06 02:26:16;;;;;;;4.07;2.50;;;10.20;99.90;;;;;;4982659;28;20130;-60
2021/11/06 02:29:03;;;;;;;3.95;2.72;;;10.20;99.90;;;;;;4982035;28;20482;-62
2021/11/06 02:31:30;;;;;;;3.72;2.63;;;10.20;99.90;;;;;;4982636;28;20145;-59
2021/11/06 02:33:57;;;;;;;5.07;2.78;;;10.20;99.90;;;;;;4983785;28;20089;-60
2021/11/06 02:36:24;;;;;;;4.53;3.20;;;10.20;99.90;;;;;;4983794;28;20085;-60
2021/11/06 02:38:50;;;;;;;3.88;2.63;;;10.30;99.80;;;;;;4984112;28;20571;-59
2021/11/06 02:41:17;;;;;;;4.00;2.63;;;10.40;99.70;;;;;;4984120;28;20054;-59
2021/11/06 02:43:44;;;;;;;3.95;2.70;;;10.50;99.70;;;;;;4984046;28;20092;-60
2021/11/06 02:46:11;;;;;;;3.85;2.58;;;10.50;99.50;;;;;;4983689;28;20097;-60
2021/11/06 02:48:37;;;;;;;4.43;2.80;;;10.60;99.40;;;;;;4983735;28;20133;-60
2021/11/06 02:51:06;;;;;;;5.53;2.28;;;10.60;99.40;;;;;;4974079;28;20085;-59
2021/11/06 02:53:33;;;;;;;4.90;2.85;;;10.60;99.30;;;;;;4965007;28;20532;-60
2021/11/06 02:56:00;;;;;;;4.78;2.58;;;10.60;99.30;;;;;;4965549;28;20146;-60
2021/11/06 02:58:29;;;;;;;4.50;2.38;;;10.70;99.20;;;;;;4981705;28;20464;-60
2021/11/06 03:00:56;;;;;;;4.22;2.58;;;10.60;99.10;;;;;;4984038;28;20054;-58
2021/11/06 03:03:23;;;;;;;3.65;2.45;;;10.70;99.10;;;;;;4983965;28;20129;-60
2021/11/06 03:05:50;;;;;;;3.28;2.30;;;10.70;99.20;;;;;;4971862;28;20438;-60
2021/11/06 03:08:17;;;;;;;8.05;3.78;;;10.70;99.10;;;;;;4984109;28;20092;-57
2021/11/06 03:10:43;;;;;;;4.70;3.33;;;10.70;99.10;;;;;;4988046;28;20104;-60
2021/11/06 03:13:10;;;;;;;5.45;3.38;;;10.70;99.10;;;;;;4987602;28;20142;-60
2021/11/06 03:15:37;;;;;;;3.83;2.55;;;10.70;99.10;;;;;;4987428;28;20320;-60
2021/11/06 03:18:03;;;;;;;3.67;2.60;;;10.70;99.10;;;;;;4986909;28;20157;-60
2021/11/06 03:20:32;;;;;;;5.75;2.90;;;10.70;99.10;;;;;;4982370;28;20131;-59
2021/11/06 03:22:59;;;;;;;4.03;2.35;;;10.70;99.10;;;;;;4968421;28;20134;-60
2021/11/06 03:25:26;;;;;;;4.22;2.72;;;10.70;99.40;;;;;;4983225;28;20105;-60
2021/11/06 03:27:53;;;;;;;6.55;3.55;;;10.70;99.10;;;;;;4980428;28;20157;-60
2021/11/06 03:30:20;;;;;;;5.57;2.80;;;10.70;99.10;;;;;;4986780;28;20477;-60
2021/11/06 03:32:46;;;;;;;4.50;3.33;;;10.70;99.20;;;;;;4979246;28;20162;-60
2021/11/06 03:35:14;;;;;;;3.72;2.70;;;10.70;99.20;;;;;;4968209;28;20054;-59
2021/11/06 03:37:43;;;;;;;3.65;2.33;;;10.70;99.10;;;;;;4993160;28;20089;-60
2021/11/06 03:40:11;;;;;;;4.35;3.13;;;10.70;99.20;;;;;;4987118;28;20141;-60
2021/11/06 03:42:38;;;;;;;3.53;2.58;;;10.70;99.10;;;;;;4986733;28;20086;-59
2021/11/06 03:45:06;;;;;;;5.47;3.28;;;10.70;99.10;;;;;;4986524;28;20405;-60
2021/11/06 03:47:34;;;;;;;3.63;2.55;;;10.70;99.20;;;;;;4985381;28;20104;-60
2021/11/06 03:50:01;;;;;;;3.92;2.67;;;10.70;99.30;;;;;;4987039;28;20301;-60
2021/11/06 03:52:31;;;;;;;6.00;3.20;;;10.70;99.40;;;;;;4985107;28;20536;-60
2021/11/06 03:54:57;;;;;;;4.50;2.85;;;10.70;99.40;;;;;;4986895;28;20050;-58
2021/11/06 03:57:24;;;;;;;4.18;2.63;;;10.70;99.40;;;;;;4987387;28;20054;-60
2021/11/06 03:59:51;;;;;;;5.32;2.92;;;10.70;99.40;;;;;;4986268;28;20086;-60
2021/11/06 04:02:18;;;;;;;5.88;3.17;;;10.70;99.30;;;;;;4977284;28;20294;-60
2021/11/06 04:04:44;;;;;;;4.20;2.92;;;10.70;99.30;;;;;;4966939;28;20467;-60
2021/11/06 04:07:11;;;;;;;3.40;2.63;;;10.70;99.40;;;;;;4973785;28;20133;-60
2021/11/06 04:09:38;;;;;;;4.75;2.40;;;10.70;99.40;;;;;;4986284;28;20537;-60
2021/11/06 04:12:05;;;;;;;4.13;2.58;;;10.70;99.40;;;;;;4987083;28;20133;-60
2021/11/06 04:14:31;;;;;;;5.47;2.97;;;10.70;99.80;;;;;;4985929;28;20889;-60
2021/11/06 04:16:58;;;;;;;4.60;2.88;;;10.60;99.90;;;;;;4986314;28;20081;-59
2021/11/06 04:19:25;;;;;;;3.63;2.78;;;10.60;99.90;;;;;;4987467;28;20078;-59
2021/11/06 04:21:53;;;;;;;4.75;3.08;;;10.50;99.90;;;;;;4987858;28;20047;-58
2021/11/06 04:24:19;;;;;;;5.50;3.00;;;10.50;99.90;;;;;;4988651;28;20081;-60
2021/11/06 04:26:49;;;;;;;3.90;3.10;;;10.50;99.90;;;;;;4988766;28;20058;-59
2021/11/06 04:29:16;;;;;;;5.65;2.72;;;10.50;99.90;;;;;;4987118;28;20073;-58
2021/11/06 04:31:43;;;;;;;5.18;3.10;;;10.50;99.90;;;;;;4988207;28;20129;-59
2021/11/06 04:34:10;;;;;;;4.35;2.97;;;10.50;99.90;;;;;;4987979;28;20085;-57
2021/11/06 04:36:39;;;;;;;4.22;2.67;;;10.50;99.90;;;;;;4988225;28;20516;-60
2021/11/06 04:39:06;;;;;;;4.68;2.55;;;10.60;99.90;;;;;;4987634;28;20125;-59
2021/11/06 04:41:32;;;;;;;3.80;2.92;;;10.60;99.90;;;;;;4988266;28;20050;-59
2021/11/06 04:44:02;;;;;;;3.90;2.85;;;10.60;99.90;;;;;;4975162;28;20089;-60
2021/11/06 04:46:28;;;;;;;4.90;2.92;;;10.60;99.90;;;;;;4968233;28;20125;-60
2021/11/06 04:48:55;;;;;;;3.97;2.50;;;10.60;99.90;;;;;;4987857;28;20085;-60
2021/11/06 04:51:22;;;;;;;3.65;2.42;;;10.60;99.90;;;;;;4987770;28;20141;-59
2021/11/06 04:53:49;;;;;;;4.50;3.40;;;10.60;99.90;;;;;;4987425;28;20140;-59
2021/11/06 04:56:16;;;;;;;5.10;3.40;;;10.50;99.90;;;;;;4988115;28;20112;-59
2021/11/06 04:58:43;;;;;;;4.85;3.05;;;10.50;99.90;;;;;;4987103;28;20137;-60
2021/11/06 05:01:10;;;;;;;6.38;2.90;;;10.50;99.90;;;;;;4987113;28;20129;-60
2021/11/06 05:03:36;;;;;;;5.32;3.25;;;10.50;99.90;;;;;;4987763;28;20134;-60
2021/11/06 05:06:03;;;;;;;4.38;2.97;;;10.50;99.90;;;;;;4987480;28;20125;-59
2021/11/06 05:08:30;;;;;;;5.20;3.25;;;10.50;99.90;;;;;;4986312;28;20074;-60
2021/11/06 05:10:57;;;;;;;5.10;2.65;;;10.50;99.90;;;;;;4987794;28;20134;-60
2021/11/06 05:13:23;;;;;;;4.20;3.17;;;10.50;99.90;;;;;;4984074;28;20074;-59
2021/11/06 05:15:50;;;;;;;5.25;3.15;;;10.50;99.90;;;;;;4967226;28;20070;-59
2021/11/06 05:18:18;;;;;;;4.25;2.92;;;10.50;99.90;;;;;;4980699;28;20073;-60
2021/11/06 05:20:45;;;;;;;4.55;2.97;;;10.50;99.90;;;;;;4986695;28;20133;-59
2021/11/06 05:23:13;;;;;;;5.63;3.50;;;10.50;99.90;;;;;;4987361;28;20225;-60
2021/11/06 05:25:41;;;;;;;4.78;3.60;;;10.50;99.90;;;;;;4986119;28;20152;-59
2021/11/06 05:28:08;;;;;;;4.25;3.28;;;10.50;99.90;;;;;;4986218;28;20073;-59
2021/11/06 05:30:34;;;;;;;5.57;3.28;;;10.50;99.90;;;;;;4986454;28;20050;-58
2021/11/06 05:33:01;;;;;;;4.63;3.05;;;10.50;99.90;;;;;;4986952;28;20456;-59
2021/11/06 05:35:28;;;;;;;3.85;2.55;;;10.50;99.90;;;;;;4987392;28;20254;-60
2021/11/06 05:37:55;;;;;;;5.03;2.65;;;10.50;99.90;;;;;;4986717;28;20134;-59
2021/11/06 05:40:22;;;;;;;3.83;2.95;;;10.50;99.90;;;;;;4986151;28;20113;-60
2021/11/06 05:42:49;;;;;;;5.20;3.38;;;10.50;99.90;;;;;;4986420;28;20129;-61
2021/11/06 05:45:17;;;;;;;5.57;3.40;;;10.50;99.90;;;;;;4986529;28;20084;-60
2021/11/06 05:47:43;;;;;;;5.10;2.95;;;10.50;99.90;;;;;;4986298;28;20282;-60
2021/11/06 05:50:11;;;;;;;5.60;3.13;;;10.50;99.90;;;;;;4983372;28;20141;-60
2021/11/06 05:52:38;;;;;;;4.90;3.30;;;10.50;99.90;;;;;;4984594;28;20170;-60
2021/11/06 05:55:06;;;;;;;4.03;2.88;;;10.50;99.90;;;;;;4983847;28;20405;-59
2021/11/06 05:57:35;;;;;;;5.97;3.33;;;10.50;99.90;;;;;;4984629;28;20109;-60
2021/11/06 06:00:04;;;;;;;4.03;2.45;;;10.40;99.90;;;;;;4982481;28;20459;-60
2021/11/06 06:02:31;;;;;;;4.05;3.00;;;10.40;99.90;;;;;;4983231;28;20336;-60
2021/11/06 06:04:58;;;;;;;5.05;2.72;;;10.40;99.90;;;;;;4982911;28;20078;-60
2021/11/06 06:07:26;;;;;;;4.38;2.85;;;10.40;99.90;;;;;;4997560;28;20073;-60
2021/11/06 06:09:53;;;;;;;4.85;2.60;;;10.30;99.90;;;;;;4982198;28;20085;-59
2021/11/06 06:12:20;;;;;;;4.60;2.92;;;10.30;99.90;;;;;;4984743;28;20688;-60
2021/11/06 06:14:47;;;;;;;3.03;2.20;;;10.30;99.90;;;;;;4982796;28;20153;-60
2021/11/06 06:17:14;;;;;;;4.40;2.92;;;10.30;99.90;;;;;;4986007;28;20129;-60
2021/11/06 06:19:41;;;;;;;4.25;2.60;;;10.20;99.90;;;;;;4981715;28;20579;-60
2021/11/06 06:22:08;;;;;;;4.25;2.70;;;10.20;99.90;;;;;;4982899;28;20141;-59
2021/11/06 06:24:34;;;;;;;3.53;1.98;;;10.20;99.90;;;;;;4982354;28;20069;-59
2021/11/06 06:27:01;;;;;;;3.65;2.25;;;10.20;99.90;;;;;;4982400;28;20121;-59
2021/11/06 06:29:28;;;;;;;5.18;3.05;;;10.10;99.90;;;;;;4983289;28;20532;-59
2021/11/06 06:31:56;;;;;;;4.72;2.55;;;10.10;99.90;;;;;;4984084;28;20532;-60
2021/11/06 06:34:22;;;;;;;3.10;2.30;;;10.10;99.90;;;;;;4982212;28;20077;-60
2021/11/06 06:36:49;;;;;;;3.33;1.98;;;10.10;99.90;;;;;;4980704;28;20138;-60
2021/11/06 06:39:16;;;;;;;2.28;1.58;;;10.10;99.90;;;;;;4981369;28;20077;-59
2021/11/06 06:41:44;;;;;;;3.10;1.95;;;10.10;99.90;;;;;;4998309;28;20499;-60
2021/11/06 06:44:11;;;;;;;3.03;1.73;;;10.10;99.90;;;;;;4986714;28;20153;-60
2021/11/06 06:46:38;;;;;;;3.25;2.03;;;10.10;99.90;;;;;;4987445;28;20050;-60
2021/11/06 06:49:05;;;;;;;2.85;1.98;;;10.00;99.90;;;;;;4987932;28;20605;-59
2021/11/06 06:51:31;;;;;;;3.67;1.88;;;10.00;99.90;;;;;;4988464;28;20054;-59
2021/11/06 06:53:58;;;;;;;2.25;1.30;;;10.00;99.90;;;;;;4988395;28;20077;-59
2021/11/06 06:56:25;;;;;;;2.83;1.77;;;10.00;99.90;;;;;;4987920;28;20251;-60
2021/11/06 06:58:52;;;;;;;2.20;1.60;;;10.00;99.90;;;;;;4987123;28;20096;-60
2021/11/06 07:01:18;;;;;;;2.92;1.80;;;10.00;99.90;;;;;;4985229;28;20364;-60
2021/11/06 07:03:46;;;;;;;1.95;1.50;;;10.00;99.90;;;;;;4981660;28;20521;-60
2021/11/06 07:06:13;;;;;;;1.85;1.42;;;10.00;99.90;;;;;;4981749;28;20236;-60
2021/11/06 07:08:39;;;;;;;2.78;1.70;;;10.00;99.90;;;;;;4979214;28;20129;-60
2021/11/06 07:11:06;;;;;;;3.85;1.85;;;10.00;99.90;;;;;;4979010;28;20537;-60
2021/11/06 07:13:34;;;;;;;3.28;1.95;;;9.90;99.90;;;;;;4980197;28;20161;-59
2021/11/06 07:16:02;;;;;;;2.85;1.67;;;10.00;99.90;;;;;;4980699;28;20141;-59
2021/11/06 07:18:28;;;;;;;2.75;1.77;;;10.00;99.90;;;;;;4981740;28;20129;-60
2021/11/06 07:20:55;;;;;;;2.13;1.30;;;10.00;99.90;;;;;;4981623;28;20086;-59
2021/11/06 07:23:22;;;;;;;2.83;1.48;;;10.10;99.90;;;;;;4981520;28;20133;-60
2021/11/06 07:25:49;;;;;;;1.60;1.48;;;10.10;99.90;;;;;;4979850;28;20201;-59
2021/11/06 07:28:15;;;;;;;2.17;1.23;;;10.10;99.90;;;;;;4981025;28;20450;-60
2021/11/06 07:30:42;;;;;;;2.03;1.35;;;10.10;99.90;;;;;;4981027;28;20050;-59
2021/11/06 07:33:09;;;;;;;2.03;1.40;;;10.10;99.90;;;;;;4980188;28;20575;-60
2021/11/06 07:35:36;;;;;;;3.33;1.50;;;10.20;99.90;;;;;;4981978;28;20477;-59
2021/11/06 07:38:02;;;;;;;3.17;1.45;;;10.20;99.90;;;;;;4981424;28;20484;-59
2021/11/06 07:40:29;;;;;;;2.05;1.15;;;10.20;99.90;;;;;;4980377;28;20050;-59
2021/11/06 07:42:56;;;;;;;1.85;1.20;;;10.10;99.90;;;;;;4981068;28;20541;-59
2021/11/06 07:45:23;;;;;;;2.58;1.25;;;10.10;99.90;;;;;;4981314;28;20073;-59
2021/11/06 07:47:50;;;;;;;1.65;1.13;;;10.20;99.90;;;;;;4981508;28;20428;-64
2021/11/06 07:50:18;;;;;;;1.75;1.30;;;10.20;99.90;;;;;;4978828;28;20088;-60
2021/11/06 07:52:45;;;;;;;1.45;1.23;;;10.20;99.90;;;;;;4979818;28;20341;-59
2021/11/06 07:55:12;;;;;;;1.48;1.20;;;10.30;99.90;;;;;;4981101;28;20579;-60
2021/11/06 07:57:39;;;;;;;2.17;1.60;;;10.30;99.90;;;;;;4981683;28;20316;-58
2021/11/06 08:00:08;;;;;;;1.83;1.10;;;10.30;99.90;;;;;;4980527;28;20515;-59
2021/11/06 08:02:35;;;;;;;2.75;1.50;;;10.40;99.90;;;;;;4979291;28;20138;-60
2021/11/06 08:05:04;;;;;;;1.75;1.30;;;10.40;99.90;;;;;;4981419;28;20078;-59
2021/11/06 08:07:31;;;;;;;2.38;1.42;;;10.40;99.90;;;;;;4980341;28;20047;-59
2021/11/06 08:09:58;;;;;;;2.13;1.42;;;10.40;99.90;;;;;;4981293;28;20145;-59
2021/11/06 08:12:25;;;;;;;2.00;1.30;;;10.40;99.90;;;;;;4980958;28;20487;-60
2021/11/06 08:14:52;;;;;;;1.67;1.33;;;10.50;99.90;;;;;;4976227;28;20144;-60
2021/11/06 08:17:19;;;;;;;1.67;1.20;;;10.50;99.90;;;;;;4980959;28;20141;-59
2021/11/06 08:19:46;;;;;;;3.05;1.65;;;10.60;99.90;;;;;;4978597;28;20160;-60
2021/11/06 08:22:13;;;;;;;2.28;1.58;;;10.60;99.90;;;;;;4980940;28;20070;-59
2021/11/06 08:24:40;;;;;;;1.60;1.10;;;10.70;99.90;;;;;;4980906;28;20860;-60
2021/11/06 08:27:07;;;;;;;2.10;1.10;;;10.70;99.80;;;;;;4980540;28;20328;-59
2021/11/06 08:29:35;;;;;;;3.10;1.30;;;10.80;99.70;;;;;;4977973;28;20054;-59
2021/11/06 08:32:02;;;;;;;2.60;1.38;;;10.90;99.60;;;;;;4980244;28;20434;-59
2021/11/06 08:34:29;;;;;;;2.58;1.20;;;11.00;99.30;;;;;;4980560;28;20486;-59
2021/11/06 08:36:58;;;;;;;1.48;1.10;;;11.00;99.30;;;;;;4980907;28;20052;-58
2021/11/06 08:39:25;;;;;;;2.03;1.35;;;11.10;99.00;;;;;;4980231;28;20145;-58
2021/11/06 08:41:54;;;;;;;2.03;1.50;;;11.10;99.00;;;;;;4980610;28;20050;-59
2021/11/06 08:44:21;;;;;;;1.33;1.10;;;11.20;99.00;;;;;;4979089;28;20403;-59
2021/11/06 08:46:48;;;;;;;1.98;1.20;;;11.20;98.80;;;;;;4979807;28;20253;-60
2021/11/06 08:49:15;;;;;;;1.85;1.15;;;11.30;98.60;;;;;;4979703;28;20054;-59
2021/11/06 08:51:43;;;;;;;1.60;1.17;;;11.30;98.60;;;;;;4980592;28;20558;-60
2021/11/06 08:54:10;;;;;;;1.58;1.08;;;11.40;98.80;;;;;;4979848;28;20141;-58
2021/11/06 08:56:37;;;;;;;1.77;0.95;;;11.50;98.30;;;;;;4980005;28;20125;-58
2021/11/06 08:59:04;;;;;;;1.83;1.00;;;11.50;98.30;;;;;;4979657;28;20074;-59
2021/11/06 09:01:31;;;;;;;2.30;1.20;;;11.50;98.30;;;;;;4978559;28;20101;-59
2021/11/06 09:03:58;;;;;;;2.50;1.05;;;11.60;98.30;;;;;;4979326;28;20707;-62
2021/11/06 09:06:25;;;;;;;1.45;1.10;;;11.60;98.10;;;;;;4975359;28;20605;-60
2021/11/06 09:08:52;;;;;;;3.58;1.05;;;11.60;98.20;;;;;;4993302;28;20046;-59
2021/11/06 09:11:19;;;;;;;1.65;1.15;;;11.60;98.20;;;;;;4962873;28;20081;-59
2021/11/06 09:13:54;;;;;;;1.88;1.02;;;11.60;98.40;;;;;;4979809;28;20081;-59
2021/11/06 09:16:21;;;;;;;2.05;1.10;;;11.60;98.30;;;;;;4978949;28;20136;-58
2021/11/06 09:18:48;;;;;;;2.40;1.00;;;11.60;98.20;;;;;;4968912;28;20395;-58
2021/11/06 09:21:18;;;;;;;2.10;1.17;;;11.60;98.40;;;;;;4977076;28;20078;-60
2021/11/06 09:23:48;;;;;;;1.10;0.82;;;11.50;98.20;;;;;;4974522;28;20074;-60
2021/11/06 09:26:17;;;;;;;1.40;1.00;;;11.60;98.50;;;;;;4977276;28;20541;-59
2021/11/06 09:28:44;;;;;;;1.45;1.10;;;11.60;98.30;;;;;;4978844;28;20050;-60
2021/11/06 09:31:11;;;;;;;1.58;1.10;;;11.60;98.20;;;;;;4977773;28;20081;-59
2021/11/06 09:33:38;;;;;;;1.98;1.02;;;11.70;98.20;;;;;;4978831;28;20596;-59
2021/11/06 09:36:05;;;;;;;2.28;1.10;;;11.70;98.20;;;;;;4977808;28;20074;-57
2021/11/06 09:38:32;;;;;;;1.10;1.00;;;11.80;98.00;;;;;;4979859;28;20549;-57
2021/11/06 09:41:01;;;;;;;1.98;1.00;;;11.80;97.90;;;;;;4993667;28;20148;-59
2021/11/06 09:43:27;;;;;;;1.08;0.90;;;11.90;97.70;;;;;;4979412;28;20145;-59
2021/11/06 09:45:55;;;;;;;2.25;1.00;;;11.90;97.60;;;;;;4979419;28;20129;-58
2021/11/06 09:48:23;;;;;;;3.13;1.10;;;12.00;97.50;;;;;;4977189;28;20146;-59
2021/11/06 09:50:51;;;;;;;1.20;0.93;;;12.10;97.50;;;;;;4979452;28;20125;-58
2021/11/06 09:53:18;;;;;;;1.23;0.93;;;12.10;97.00;;;;;;4977236;28;20120;-57
2021/11/06 09:55:44;;;;;;;1.58;0.98;;;12.20;97.00;;;;;;4977828;28;20080;-59
2021/11/06 09:58:11;;;;;;;1.15;0.90;;;12.20;97.00;;;;;;4979105;28;20042;-60
2021/11/06 10:00:38;;;;;;;2.28;0.90;;;12.30;96.70;;;;;;4977681;28;20142;-58
2021/11/06 10:03:05;;;;;;;1.65;0.90;;;12.40;96.60;;;;;;4978063;28;20179;-58
2021/11/06 10:05:51;;;;;;;2.00;0.90;;;12.50;96.50;;;;;;4979252;28;20577;-56
2021/11/06 10:08:23;;;;;;;1.70;1.00;;;12.50;96.20;;;;;;4975963;28;20138;-57
2021/11/06 10:10:51;;;;;;;1.83;1.00;;;12.60;96.30;;;;;;4979634;28;20055;-59
2021/11/06 14:50:04;;;;;;;1.27;0.83;;;13.40;93.70;;;;;;5857918;23;20027;-58
2021/11/06 14:52:32;;;;;;;1.52;0.93;;;13.40;93.90;;;;;;4848642;29;20057;-58
2021/11/06 14:55:05;;;;;;;2.40;1.10;;;13.40;94.00;;;;;;4853930;29;20137;-58
2021/11/06 14:57:38;;;;;;;1.42;0.70;;;13.40;94.10;;;;;;4876650;29;20124;-58
2021/11/06 15:00:21;;;;;;;1.38;0.90;;;13.30;94.10;;;;;;4879321;29;20076;-58
2021/11/06 15:03:08;;;;;;;1.75;1.10;;;13.30;94.30;;;;;;4874596;29;20556;-59
2021/11/06 15:05:36;;;;;;;1.83;1.27;;;13.30;94.40;;;;;;4852586;29;20552;-59
2021/11/06 15:08:14;;;;;;;1.52;1.02;;;13.30;94.40;;;;;;4853042;29;20084;-59
2021/11/06 15:10:41;;;;;;;1.98;1.00;;;13.40;94.50;;;;;;4855950;29;20057;-58
2021/11/06 15:13:09;;;;;;;1.70;1.02;;;13.40;94.20;;;;;;4876347;29;20135;-59
2021/11/06 15:15:36;;;;;;;2.10;1.10;;;13.40;94.10;;;;;;4888864;29;20088;-60
2021/11/06 15:18:05;;;;;;;1.30;0.93;;;13.40;93.90;;;;;;4871913;29;20279;-58
2021/11/06 15:20:32;;;;;;;2.40;1.27;;;13.30;94.00;;;;;;4889023;29;20539;-58
2021/11/06 15:23:00;;;;;;;2.63;1.40;;;13.30;93.80;;;;;;4870280;29;20079;-58
2021/11/06 15:25:27;;;;;;;3.28;2.17;;;13.30;93.90;;;;;;4871760;29;20139;-58
2021/11/06 15:27:54;;;;;;;2.97;1.63;;;13.30;94.10;;;;;;4870356;29;20136;-58
2021/11/06 15:30:21;;;;;;;2.65;1.30;;;13.30;93.80;;;;;;4887648;29;20644;-59
2021/11/06 15:32:48;;;;;;;2.25;1.38;;;13.50;93.30;;;;;;4880254;29;20080;-59
2021/11/06 15:35:16;;;;;;;3.13;1.10;;;13.60;93.00;;;;;;4874441;29;20156;-58
2021/11/06 15:37:43;;;;;;;1.77;1.00;;;13.90;92.10;;;;;;4869277;29;20084;-58
2021/11/06 15:40:14;;;;;;;1.50;0.80;;;14.20;91.30;;;;;;4846836;29;20301;-58
2021/11/06 15:42:41;;;;;;;1.42;0.80;;;14.20;90.90;;;;;;4887884;29;20464;-58
2021/11/06 15:45:08;;;;;;;1.33;0.70;;;14.10;91.10;;;;;;4882643;29;20484;-59
2021/11/06 15:47:35;;;;;;;1.38;1.10;;;14.00;91.10;;;;;;4887851;29;20099;-58
2021/11/06 15:50:02;;;;;;;1.92;0.90;;;13.80;91.40;;;;;;4881401;29;20084;-58
2021/11/06 15:52:30;;;;;;;1.75;0.85;;;13.60;91.90;;;;;;4883237;29;20433;-58
2021/11/06 15:54:58;;;;;;;3.95;1.20;;;13.40;92.20;;;;;;4883137;29;20052;-58
2021/11/06 15:57:26;;;;;;;1.55;0.98;;;13.30;92.50;;;;;;4888831;29;20139;-58
2021/11/06 15:59:56;;;;;;;2.03;0.70;;;13.20;92.70;;;;;;4864407;29;20070;-58
2021/11/06 16:02:24;;;;;;;2.03;0.93;;;13.20;92.70;;;;;;4888199;29;20052;-58
2021/11/06 16:04:51;;;;;;;3.65;0.98;;;13.20;93.00;;;;;;4880212;29;20068;-59
2021/11/06 16:07:19;;;;;;;1.85;0.80;;;13.10;93.10;;;;;;4881966;29;20502;-59
2021/11/06 16:09:46;;;;;;;1.70;1.10;;;13.10;93.10;;;;;;4889500;29;20486;-60
2021/11/06 16:12:18;;;;;;;1.52;1.00;;;13.10;93.30;;;;;;4881080;29;20081;-60
2021/11/06 16:14:45;;;;;;;1.70;1.15;;;13.00;93.40;;;;;;4882433;29;20211;-60
2021/11/06 16:17:14;;;;;;;2.15;1.20;;;13.00;93.40;;;;;;4867945;29;20132;-60
2021/11/06 16:19:42;;;;;;;1.95;1.25;;;13.00;93.40;;;;;;4876952;29;20133;-60
2021/11/06 16:22:09;;;;;;;2.33;1.40;;;13.00;93.50;;;;;;4857853;29;20135;-60
2021/11/06 16:24:37;;;;;;;2.05;1.30;;;12.90;93.40;;;;;;4879355;29;20147;-60
2021/11/06 16:27:24;;;;;;;2.08;1.20;;;12.90;93.50;;;;;;4853559;29;20053;-59
2021/11/06 16:29:57;;;;;;;1.70;1.17;;;12.90;93.70;;;;;;4876859;29;20049;-60
2021/11/06 16:32:24;;;;;;;1.27;0.98;;;12.90;93.80;;;;;;4874727;29;20053;-59
2021/11/06 16:34:50;;;;;;;1.80;1.42;;;12.90;93.90;;;;;;4860025;29;20100;-60
2021/11/06 16:37:17;;;;;;;5.63;2.10;;;12.90;93.80;;;;;;4864171;29;20568;-60
2021/11/06 16:39:44;;;;;;;3.13;2.28;;;12.90;93.80;;;;;;4871116;29;20148;-60
2021/11/06 16:42:11;;;;;;;2.38;1.40;;;12.90;93.90;;;;;;4866031;29;20480;-60
2021/11/06 16:44:37;;;;;;;2.65;1.58;;;12.90;93.70;;;;;;4866781;29;20107;-60
2021/11/06 16:47:19;;;;;;;2.35;1.60;;;12.90;93.60;;;;;;4866611;29;20067;-60
2021/11/06 16:49:46;;;;;;;2.67;1.92;;;12.90;93.80;;;;;;4867522;29;20053;-60
2021/11/06 16:52:15;;;;;;;2.40;1.40;;;12.90;93.70;;;;;;4858336;29;20677;-60
2021/11/06 16:54:42;;;;;;;2.22;1.35;;;12.90;93.80;;;;;;4853053;29;20129;-60
2021/11/06 16:57:09;;;;;;;3.15;2.10;;;12.90;93.90;;;;;;4848085;29;20137;-60
2021/11/06 16:59:35;;;;;;;2.50;1.42;;;12.90;93.70;;;;;;4848277;29;20537;-60
2021/11/06 17:02:02;;;;;;;2.80;1.38;;;12.80;93.70;;;;;;4855394;29;20474;-60
2021/11/06 17:04:29;;;;;;;4.25;1.90;;;12.80;93.70;;;;;;4856693;29;20375;-60
2021/11/06 17:06:57;;;;;;;3.70;1.80;;;12.80;93.60;;;;;;4845793;29;20053;-60
2021/11/06 17:09:41;;;;;;;2.88;1.67;;;12.80;93.60;;;;;;4831983;29;20141;-60
2021/11/06 17:12:08;;;;;;;3.78;1.88;;;12.80;93.40;;;;;;4847189;29;20472;-60
2021/11/06 17:14:34;;;;;;;2.50;1.63;;;12.80;93.30;;;;;;4830910;29;20528;-60
2021/11/06 17:17:01;;;;;;;3.72;1.92;;;12.80;93.30;;;;;;4830431;29;20053;-60
2021/11/06 17:19:28;;;;;;;2.83;1.73;;;12.80;93.30;;;;;;4848163;29;20092;-60
2021/11/06 17:21:56;;;;;;;2.67;1.67;;;12.80;93.20;;;;;;4845619;29;20382;-60
2021/11/06 17:24:23;;;;;;;2.30;1.60;;;12.80;93.00;;;;;;4847675;29;20132;-60
2021/11/06 17:26:49;;;;;;;2.42;1.42;;;12.80;93.00;;;;;;4847298;29;20061;-60